Time;durP1;ratioP1;P1;durP2;ratioP2;P2;SDS_P1;SDS_P2;PMS_P1;PMS_P2;Temp;Humidity;BMP_temperature;BMP_pressure;BME280_temperature;BME280_humidity;BME280_pressure;Samples;Min_cycle;Max_cycle;Signal;HPM_P1;HPM_P2
2022/07/19 00:00:52;;;;;;;8.55;5.95;;;17.40;99.90;;;;;;4999800;28;20033;-62
2022/07/19 00:03:18;;;;;;;8.60;6.05;;;17.40;99.90;;;;;;5004044;28;20048;-61
2022/07/19 00:05:44;;;;;;;12.15;6.35;;;17.30;99.90;;;;;;4985289;28;20053;-61
2022/07/19 00:08:10;;;;;;;14.27;6.68;;;17.20;99.90;;;;;;4998932;28;20619;-61
2022/07/19 00:10:36;;;;;;;8.52;5.82;;;17.30;99.90;;;;;;5002552;28;20045;-61
2022/07/19 00:13:02;;;;;;;7.00;5.68;;;17.20;99.90;;;;;;4999302;28;20049;-61
2022/07/19 00:15:28;;;;;;;8.95;5.93;;;17.20;99.90;;;;;;4999493;28;20030;-61
2022/07/19 00:17:53;;;;;;;9.65;5.60;;;17.20;99.90;;;;;;4997479;28;20040;-61
2022/07/19 00:20:22;;;;;;;10.05;5.90;;;17.10;99.90;;;;;;4999429;28;20030;-61
2022/07/19 00:22:48;;;;;;;8.77;5.95;;;17.00;99.90;;;;;;5001141;28;20030;-61
2022/07/19 00:25:14;;;;;;;14.23;5.82;;;16.90;99.90;;;;;;4999975;28;20149;-61
2022/07/19 00:27:40;;;;;;;9.80;5.95;;;16.80;99.90;;;;;;5001557;28;20077;-61
2022/07/19 00:30:07;;;;;;;7.25;5.70;;;16.80;99.90;;;;;;5000092;28;20038;-61
2022/07/19 00:32:33;;;;;;;9.15;6.10;;;16.80;99.90;;;;;;4998959;28;20084;-61
2022/07/19 00:34:58;;;;;;;10.70;6.15;;;16.70;99.90;;;;;;4983390;28;20061;-61
2022/07/19 00:37:24;;;;;;;11.15;6.30;;;16.70;99.90;;;;;;5002123;28;20040;-61
2022/07/19 00:39:50;;;;;;;8.18;6.20;;;16.70;99.90;;;;;;5000975;28;20026;-61
2022/07/19 00:42:17;;;;;;;10.98;6.28;;;16.60;99.90;;;;;;4999128;28;20105;-60
2022/07/19 00:44:42;;;;;;;11.32;6.38;;;16.60;99.90;;;;;;4997648;28;20038;-61
2022/07/19 00:47:08;;;;;;;9.88;5.93;;;16.60;99.90;;;;;;5002038;28;20447;-61
2022/07/19 00:49:34;;;;;;;9.75;5.90;;;16.60;99.90;;;;;;5001161;28;20034;-61
2022/07/19 00:52:02;;;;;;;9.02;6.22;;;16.60;99.90;;;;;;4998350;28;20039;-61
2022/07/19 00:54:30;;;;;;;9.93;6.60;;;16.60;99.90;;;;;;5000520;28;20038;-61
2022/07/19 00:56:59;;;;;;;12.30;6.03;;;16.50;99.90;;;;;;4995447;28;20037;-61
2022/07/19 00:59:27;;;;;;;8.95;6.43;;;16.40;99.90;;;;;;4981493;28;20038;-61
2022/07/19 01:01:53;;;;;;;10.82;5.70;;;16.30;99.90;;;;;;4997067;28;20040;-61
2022/07/19 01:04:21;;;;;;;10.25;6.05;;;16.30;99.90;;;;;;4997851;28;20527;-61
2022/07/19 01:06:46;;;;;;;10.68;5.60;;;16.30;99.90;;;;;;4999608;28;20562;-61
2022/07/19 01:09:12;;;;;;;8.18;5.55;;;16.20;99.90;;;;;;4999804;28;20084;-61
2022/07/19 01:11:39;;;;;;;10.27;6.45;;;16.30;99.90;;;;;;5001302;28;20049;-61
2022/07/19 01:14:05;;;;;;;7.78;6.00;;;16.30;99.90;;;;;;4995720;28;20396;-61
2022/07/19 01:16:31;;;;;;;8.10;5.90;;;16.20;99.90;;;;;;4999077;28;20096;-61
2022/07/19 01:18:57;;;;;;;7.32;5.38;;;16.10;99.90;;;;;;4996864;28;20037;-61
2022/07/19 01:21:26;;;;;;;10.32;5.97;;;16.00;99.90;;;;;;4997366;28;20030;-61
2022/07/19 01:23:52;;;;;;;11.70;6.05;;;16.00;99.90;;;;;;5005228;28;20046;-61
2022/07/19 01:26:18;;;;;;;7.88;5.60;;;16.00;99.90;;;;;;4995719;28;20038;-59
2022/07/19 01:28:45;;;;;;;7.95;5.90;;;15.90;99.90;;;;;;4999262;28;20041;-58
2022/07/19 01:31:11;;;;;;;8.82;6.10;;;15.90;99.90;;;;;;4997651;28;20026;-58
2022/07/19 01:33:44;;;;;;;11.32;6.00;;;15.90;99.90;;;;;;4997049;28;20092;-59
2022/07/19 01:36:10;;;;;;;10.00;5.88;;;15.80;99.90;;;;;;4999066;28;20030;-59
2022/07/19 01:38:36;;;;;;;7.95;5.57;;;15.70;99.90;;;;;;4998673;28;20072;-58
2022/07/19 01:41:02;;;;;;;11.55;6.60;;;15.70;99.90;;;;;;4998837;28;20045;-59
2022/07/19 01:43:27;;;;;;;11.30;6.35;;;15.70;99.90;;;;;;4998842;28;20030;-59
2022/07/19 01:45:53;;;;;;;10.50;6.63;;;15.50;99.90;;;;;;4999345;28;20030;-59
2022/07/19 01:48:20;;;;;;;9.65;6.68;;;15.40;99.90;;;;;;4998150;28;20524;-59
2022/07/19 01:50:46;;;;;;;11.65;6.80;;;15.50;99.90;;;;;;4999881;28;20543;-59
2022/07/19 01:53:11;;;;;;;11.25;6.10;;;15.40;99.90;;;;;;4997283;28;20037;-59
2022/07/19 01:55:37;;;;;;;17.02;6.97;;;15.50;99.90;;;;;;4997813;28;20034;-59
2022/07/19 01:58:04;;;;;;;9.07;6.20;;;15.50;99.90;;;;;;4996956;28;20439;-61
2022/07/19 02:00:30;;;;;;;10.00;6.55;;;15.50;99.90;;;;;;4982553;28;20086;-60
2022/07/19 02:02:56;;;;;;;10.55;6.32;;;15.40;99.90;;;;;;4999681;28;20484;-61
2022/07/19 02:05:22;;;;;;;8.98;6.25;;;15.30;99.90;;;;;;4978294;28;20626;-61
2022/07/19 02:07:47;;;;;;;14.60;6.60;;;15.30;99.90;;;;;;5000002;28;20043;-61
2022/07/19 02:10:14;;;;;;;9.50;6.50;;;15.30;99.90;;;;;;4996873;28;20026;-61
2022/07/19 02:12:39;;;;;;;9.10;6.10;;;15.30;99.90;;;;;;5000763;28;20026;-60
2022/07/19 02:15:06;;;;;;;11.65;7.13;;;15.20;99.90;;;;;;4995003;28;20428;-61
2022/07/19 02:17:32;;;;;;;12.88;6.35;;;15.10;99.90;;;;;;4999575;28;20530;-61
2022/07/19 02:19:57;;;;;;;10.35;6.43;;;15.10;99.90;;;;;;5000436;28;20121;-61
2022/07/19 02:22:23;;;;;;;10.77;6.07;;;15.20;99.90;;;;;;5001378;28;20073;-62
2022/07/19 02:24:49;;;;;;;9.40;6.53;;;15.20;99.90;;;;;;5004543;28;20180;-62
2022/07/19 02:27:14;;;;;;;8.27;5.93;;;15.20;99.90;;;;;;5010056;28;20085;-62
2022/07/19 02:29:40;;;;;;;9.15;6.25;;;15.10;99.90;;;;;;5010611;28;20074;-62
2022/07/19 02:32:06;;;;;;;8.80;6.35;;;15.20;99.90;;;;;;5008907;28;20030;-62
2022/07/19 02:34:33;;;;;;;12.38;6.82;;;15.10;99.90;;;;;;5009952;28;20067;-61
2022/07/19 02:36:58;;;;;;;10.50;6.40;;;15.00;99.90;;;;;;5010586;28;20026;-62
2022/07/19 02:39:24;;;;;;;8.90;6.78;;;14.80;99.90;;;;;;5006445;28;20049;-62
2022/07/19 02:41:50;;;;;;;9.68;6.30;;;14.70;99.90;;;;;;5006598;28;20056;-62
2022/07/19 02:44:15;;;;;;;9.20;6.68;;;14.70;99.90;;;;;;5010823;28;20041;-62
2022/07/19 02:46:41;;;;;;;11.73;6.63;;;14.60;99.90;;;;;;4987001;28;20042;-62
2022/07/19 02:49:07;;;;;;;15.07;6.57;;;14.70;99.90;;;;;;5010646;28;20101;-61
2022/07/19 02:51:32;;;;;;;13.90;7.18;;;14.80;99.90;;;;;;5005439;28;20026;-61
2022/07/19 02:53:58;;;;;;;17.50;7.35;;;14.80;99.90;;;;;;5008180;28;20036;-61
2022/07/19 02:56:23;;;;;;;10.25;7.07;;;14.90;99.90;;;;;;5005672;28;20038;-62
2022/07/19 02:58:49;;;;;;;14.23;7.10;;;14.80;99.90;;;;;;5006674;28;20034;-62
2022/07/19 03:01:15;;;;;;;12.60;7.15;;;14.80;99.90;;;;;;5006745;28;20052;-61
2022/07/19 03:03:44;;;;;;;9.98;6.75;;;14.70;99.90;;;;;;4994258;28;20050;-61
2022/07/19 03:06:11;;;;;;;11.82;7.20;;;14.70;99.90;;;;;;5009973;28;20033;-62
2022/07/19 03:08:37;;;;;;;10.00;6.70;;;14.70;99.90;;;;;;5010817;28;20052;-61
2022/07/19 03:11:03;;;;;;;12.50;7.10;;;14.60;99.90;;;;;;5011943;28;20113;-62
2022/07/19 03:13:29;;;;;;;10.30;6.80;;;14.70;99.90;;;;;;5010493;28;20038;-61
2022/07/19 03:15:54;;;;;;;12.93;7.75;;;14.60;99.90;;;;;;5012299;28;20038;-61
2022/07/19 03:18:20;;;;;;;15.38;7.35;;;14.50;99.90;;;;;;5005630;28;20631;-61
2022/07/19 03:20:45;;;;;;;11.50;6.72;;;14.50;99.90;;;;;;5012200;28;20030;-61
2022/07/19 03:23:11;;;;;;;8.90;6.50;;;14.50;99.90;;;;;;5010234;28;20539;-61
2022/07/19 03:25:37;;;;;;;9.32;6.68;;;14.50;99.90;;;;;;5011139;28;20472;-61
2022/07/19 03:28:03;;;;;;;8.05;6.00;;;14.40;99.90;;;;;;5011244;28;20095;-61
2022/07/19 03:30:29;;;;;;;7.55;5.55;;;14.40;99.90;;;;;;5010952;28;20038;-61
2022/07/19 03:32:55;;;;;;;10.32;6.72;;;14.30;99.90;;;;;;5011653;28;20483;-61
2022/07/19 03:35:21;;;;;;;11.45;6.53;;;14.30;99.90;;;;;;5010290;28;20030;-62
2022/07/19 03:37:46;;;;;;;13.15;7.25;;;14.30;99.90;;;;;;5010213;28;20137;-62
2022/07/19 03:40:12;;;;;;;9.55;6.40;;;14.20;99.90;;;;;;5009502;28;20034;-61
2022/07/19 03:42:38;;;;;;;11.10;6.53;;;14.20;99.90;;;;;;5011339;28;20109;-61
2022/07/19 03:45:05;;;;;;;11.77;6.68;;;14.20;99.90;;;;;;5011003;28;20037;-61
2022/07/19 03:47:30;;;;;;;10.15;6.55;;;14.10;99.90;;;;;;5010064;28;20037;-61
2022/07/19 03:49:57;;;;;;;11.48;7.10;;;14.00;99.90;;;;;;5010308;28;20034;-61
2022/07/19 03:52:23;;;;;;;12.50;6.82;;;14.00;99.90;;;;;;5010063;28;20040;-61
2022/07/19 03:54:49;;;;;;;13.27;6.97;;;14.00;99.90;;;;;;5010505;28;20428;-61
2022/07/19 03:57:15;;;;;;;11.82;6.80;;;14.00;99.90;;;;;;5010728;28;20087;-61
2022/07/19 03:59:41;;;;;;;12.80;6.60;;;14.00;99.90;;;;;;5007380;28;20092;-61
2022/07/19 04:02:06;;;;;;;10.45;6.88;;;14.00;99.90;;;;;;5007226;28;20029;-61
2022/07/19 04:04:32;;;;;;;14.30;7.40;;;14.00;99.90;;;;;;5006226;28;20121;-61
2022/07/19 04:06:58;;;;;;;8.80;6.00;;;14.00;99.90;;;;;;5009473;28;20156;-62
2022/07/19 04:09:23;;;;;;;11.15;6.85;;;14.10;99.90;;;;;;5010268;28;20022;-61
2022/07/19 04:11:49;;;;;;;10.05;7.00;;;14.10;99.90;;;;;;5010930;28;20033;-61
2022/07/19 04:14:15;;;;;;;11.23;6.72;;;14.10;99.90;;;;;;5010582;28;20041;-61
2022/07/19 04:16:41;;;;;;;10.40;7.10;;;14.20;99.90;;;;;;5010509;28;20053;-61
2022/07/19 04:19:06;;;;;;;12.00;6.60;;;14.10;99.90;;;;;;4989200;28;20026;-61
2022/07/19 04:21:32;;;;;;;12.40;7.90;;;14.30;99.90;;;;;;4996754;28;20110;-61
2022/07/19 04:23:58;;;;;;;15.23;7.80;;;14.30;99.90;;;;;;5010562;28;20033;-61
2022/07/19 04:26:23;;;;;;;11.85;7.65;;;14.30;99.90;;;;;;5009782;28;20081;-61
2022/07/19 04:28:49;;;;;;;11.38;7.22;;;14.40;99.90;;;;;;5010768;28;20464;-61
2022/07/19 04:31:15;;;;;;;12.52;7.80;;;14.50;99.90;;;;;;5009961;28;20040;-61
2022/07/19 04:33:41;;;;;;;14.18;8.20;;;14.50;99.90;;;;;;5010048;28;20076;-61
2022/07/19 04:36:06;;;;;;;13.75;7.80;;;14.60;99.90;;;;;;5009504;28;20044;-61
2022/07/19 04:38:32;;;;;;;13.00;7.75;;;14.70;99.90;;;;;;4994795;28;20113;-61
2022/07/19 04:40:58;;;;;;;11.50;6.93;;;14.90;99.90;;;;;;4999383;28;20029;-61
2022/07/19 04:43:23;;;;;;;11.63;6.97;;;15.10;99.90;;;;;;4991650;28;20184;-61
2022/07/19 04:45:49;;;;;;;10.02;6.57;;;15.30;99.90;;;;;;5009321;28;20069;-61
2022/07/19 04:48:15;;;;;;;12.25;7.10;;;15.40;99.90;;;;;;5005029;28;20105;-62
2022/07/19 04:50:41;;;;;;;10.73;7.20;;;15.50;99.90;;;;;;5009142;28;20041;-61
2022/07/19 04:53:08;;;;;;;20.73;7.63;;;15.70;99.90;;;;;;5008897;28;20033;-61
2022/07/19 04:55:35;;;;;;;10.18;7.00;;;15.90;99.90;;;;;;5010160;28;20036;-61
2022/07/19 04:58:01;;;;;;;10.60;6.22;;;15.90;99.90;;;;;;5009264;28;20056;-61
2022/07/19 05:00:27;;;;;;;12.50;6.65;;;15.80;99.90;;;;;;5008713;28;20026;-61
2022/07/19 05:02:56;;;;;;;9.60;6.65;;;16.00;99.90;;;;;;5009872;28;20026;-61
2022/07/19 05:05:22;;;;;;;11.38;6.07;;;16.20;99.90;;;;;;5008508;28;20046;-61
2022/07/19 05:07:48;;;;;;;9.20;6.40;;;16.40;99.90;;;;;;5010171;28;20080;-61
2022/07/19 05:10:14;;;;;;;9.75;6.28;;;16.60;99.90;;;;;;5007089;28;20442;-61
2022/07/19 05:12:40;;;;;;;10.38;6.22;;;16.70;99.90;;;;;;5004743;28;20030;-61
2022/07/19 05:15:08;;;;;;;8.80;6.32;;;16.50;99.90;;;;;;5009371;28;20041;-61
2022/07/19 05:17:34;;;;;;;12.90;6.47;;;16.60;99.90;;;;;;5009179;28;20088;-61
2022/07/19 05:19:59;;;;;;;10.32;6.60;;;16.70;99.90;;;;;;5009767;28;20469;-61
2022/07/19 05:22:25;;;;;;;15.85;6.72;;;16.90;99.90;;;;;;5006762;28;20025;-61
2022/07/19 05:24:55;;;;;;;14.35;7.60;;;17.10;99.90;;;;;;4997662;28;20042;-61
2022/07/19 05:27:21;;;;;;;12.30;6.63;;;17.30;99.90;;;;;;5008313;28;20140;-61
2022/07/19 05:29:47;;;;;;;11.43;6.72;;;17.50;99.90;;;;;;5009131;28;20124;-61
2022/07/19 05:32:13;;;;;;;14.07;7.30;;;17.60;99.90;;;;;;5001145;28;20032;-61
2022/07/19 05:34:38;;;;;;;13.52;7.25;;;17.80;99.90;;;;;;5009549;28;20484;-61
2022/07/19 05:37:04;;;;;;;9.88;6.82;;;17.70;99.90;;;;;;5006337;28;20587;-61
2022/07/19 05:39:30;;;;;;;10.30;7.03;;;17.80;99.90;;;;;;4997285;28;20076;-61
2022/07/19 05:41:56;;;;;;;10.25;7.55;;;17.90;99.90;;;;;;4990002;28;20034;-61
2022/07/19 05:44:22;;;;;;;10.27;6.60;;;17.90;99.90;;;;;;4989370;28;20105;-61
2022/07/19 05:46:47;;;;;;;11.32;6.82;;;18.10;99.90;;;;;;4999355;28;20030;-61
2022/07/19 05:49:13;;;;;;;11.40;6.57;;;18.30;99.90;;;;;;5008106;28;20049;-61
2022/07/19 05:51:40;;;;;;;13.15;6.25;;;18.50;99.90;;;;;;5007826;28;20034;-61
2022/07/19 05:54:07;;;;;;;9.07;5.88;;;18.80;99.90;;;;;;5008993;28;20396;-61
2022/07/19 05:56:33;;;;;;;8.40;6.03;;;18.90;99.90;;;;;;5011407;28;20037;-61
2022/07/19 05:58:59;;;;;;;9.93;6.95;;;19.10;99.90;;;;;;5011465;28;20153;-61
2022/07/19 06:01:25;;;;;;;13.88;7.00;;;19.30;99.90;;;;;;5009352;28;20109;-61
2022/07/19 06:03:53;;;;;;;12.55;7.32;;;19.50;99.90;;;;;;4991803;28;20837;-61
2022/07/19 06:06:20;;;;;;;12.80;6.38;;;19.60;99.90;;;;;;5003663;28;20057;-61
2022/07/19 06:08:47;;;;;;;11.50;6.97;;;19.90;99.90;;;;;;4994814;28;20551;-61
2022/07/19 06:11:14;;;;;;;12.65;7.15;;;20.10;99.90;;;;;;5012785;28;20468;-61
2022/07/19 06:13:40;;;;;;;9.40;6.00;;;20.30;99.90;;;;;;5011657;28;20482;-61
2022/07/19 06:16:07;;;;;;;9.35;6.30;;;20.40;99.90;;;;;;5012775;28;20026;-61
2022/07/19 06:18:36;;;;;;;12.30;6.43;;;20.60;99.90;;;;;;5011726;28;20611;-61
2022/07/19 06:21:11;;;;;;;11.27;6.30;;;20.80;99.90;;;;;;5010925;28;20388;-61
2022/07/19 06:23:37;;;;;;;10.75;5.70;;;21.00;99.90;;;;;;5011926;28;20162;-61
2022/07/19 06:26:04;;;;;;;11.95;5.72;;;21.10;99.90;;;;;;5011911;28;20037;-61
2022/07/19 06:28:31;;;;;;;10.27;6.13;;;21.30;99.90;;;;;;5011440;28;20470;-61
2022/07/19 06:30:56;;;;;;;15.68;5.88;;;21.50;99.90;;;;;;5011635;28;20041;-61
2022/07/19 06:33:22;;;;;;;10.80;5.55;;;21.70;99.90;;;;;;5011333;28;20030;-61
2022/07/19 06:35:48;;;;;;;9.95;5.32;;;21.90;99.90;;;;;;5012873;28;20030;-61
2022/07/19 06:38:14;;;;;;;20.55;5.60;;;22.10;99.90;;;;;;5010970;28;20033;-62
2022/07/19 06:40:40;;;;;;;12.13;5.63;;;22.30;99.90;;;;;;5009467;28;20034;-61
2022/07/19 06:43:06;;;;;;;9.57;5.20;;;22.60;99.90;;;;;;5012028;28;20476;-61
2022/07/19 06:45:31;;;;;;;137.57;15.57;;;22.80;99.90;;;;;;5007778;28;20069;-61
2022/07/19 06:47:57;;;;;;;102.78;12.65;;;23.10;99.90;;;;;;5007400;28;20030;-62
2022/07/19 06:50:23;;;;;;;15.35;5.68;;;23.40;99.90;;;;;;5003275;28;20025;-61
2022/07/19 06:52:48;;;;;;;41.30;8.10;;;23.70;99.90;;;;;;5008750;28;20033;-62
2022/07/19 06:55:14;;;;;;;7.13;4.43;;;24.00;98.80;;;;;;5008467;28;20041;-61
2022/07/19 06:57:40;;;;;;;9.45;4.65;;;24.30;97.50;;;;;;5009909;28;20034;-62
2022/07/19 07:00:08;;;;;;;68.72;8.00;;;24.50;95.60;;;;;;5011441;28;20046;-61
2022/07/19 07:02:35;;;;;;;10.02;4.13;;;24.80;96.20;;;;;;5008952;28;20640;-62
2022/07/19 07:05:01;;;;;;;9.15;4.10;;;25.10;93.70;;;;;;5003632;28;20061;-61
2022/07/19 07:07:27;;;;;;;58.85;7.97;;;25.30;92.40;;;;;;5006986;28;20062;-62
2022/07/19 07:09:52;;;;;;;43.60;6.78;;;25.50;91.80;;;;;;5009931;28;20105;-62
2022/07/19 07:12:18;;;;;;;10.88;4.10;;;25.80;92.50;;;;;;5009760;28;20033;-61
2022/07/19 07:14:44;;;;;;;5.63;3.50;;;25.90;90.70;;;;;;5008361;28;20041;-62
2022/07/19 07:17:10;;;;;;;12.23;3.58;;;26.00;85.10;;;;;;5010186;28;20030;-61
2022/07/19 07:19:35;;;;;;;5.70;3.42;;;26.30;81.80;;;;;;5007431;28;20034;-62
2022/07/19 07:22:01;;;;;;;11.13;3.38;;;26.60;78.80;;;;;;5010193;28;20448;-62
2022/07/19 07:24:28;;;;;;;4.10;2.80;;;26.90;77.60;;;;;;5006470;28;20100;-60
2022/07/19 07:26:53;;;;;;;6.22;2.88;;;27.10;69.60;;;;;;5008457;28;20160;-60
2022/07/19 07:29:19;;;;;;;5.18;2.65;;;27.40;69.50;;;;;;4997797;28;20105;-62
2022/07/19 07:31:45;;;;;;;10.10;3.13;;;27.60;62.50;;;;;;5011434;28;20038;-62
2022/07/19 07:34:11;;;;;;;20.85;5.03;;;27.70;62.50;;;;;;5009790;28;20065;-62
2022/07/19 07:36:36;;;;;;;26.27;6.53;;;27.80;59.90;;;;;;5009291;28;20034;-62
2022/07/19 07:39:02;;;;;;;9.82;3.78;;;27.80;59.90;;;;;;5009485;28;20105;-62
2022/07/19 07:41:28;;;;;;;10.30;3.83;;;28.00;58.90;;;;;;5010144;28;20034;-62
2022/07/19 07:43:54;;;;;;;9.70;3.30;;;28.10;59.00;;;;;;5009840;28;20037;-62
2022/07/19 07:46:19;;;;;;;11.30;3.20;;;28.30;57.90;;;;;;5010665;28;20029;-62
2022/07/19 07:48:45;;;;;;;10.88;3.10;;;28.30;55.90;;;;;;5011268;28;20040;-63
2022/07/19 07:51:11;;;;;;;9.95;2.85;;;28.40;56.50;;;;;;5011608;28;20057;-62
2022/07/19 07:53:36;;;;;;;5.93;3.20;;;28.40;54.40;;;;;;5010797;28;20221;-62
2022/07/19 07:56:02;;;;;;;7.70;2.60;;;28.40;54.70;;;;;;5011473;28;20038;-63
2022/07/19 07:58:28;;;;;;;5.88;3.35;;;28.60;52.80;;;;;;5010562;28;20025;-62
2022/07/19 08:00:54;;;;;;;7.85;2.92;;;28.60;52.70;;;;;;5011182;28;20084;-62
2022/07/19 08:03:19;;;;;;;5.55;2.55;;;28.60;51.80;;;;;;5010521;28;20034;-62
2022/07/19 08:05:47;;;;;;;8.48;3.00;;;28.70;49.60;;;;;;5009529;28;20038;-62
2022/07/19 08:08:14;;;;;;;4.40;2.90;;;28.90;50.30;;;;;;5011194;28;20076;-63
2022/07/19 08:10:39;;;;;;;10.18;2.97;;;28.90;49.10;;;;;;5010228;28;20642;-62
2022/07/19 08:13:05;;;;;;;4.05;2.90;;;28.80;49.20;;;;;;5011298;28;20026;-62
2022/07/19 08:15:31;;;;;;;5.82;2.83;;;28.90;48.90;;;;;;5004403;28;20031;-62
2022/07/19 08:17:57;;;;;;;5.68;2.88;;;28.90;49.10;;;;;;5008532;28;20053;-62
2022/07/19 08:20:22;;;;;;;8.73;2.85;;;29.00;48.10;;;;;;5010204;28;20026;-62
2022/07/19 08:22:48;;;;;;;5.38;2.55;;;29.00;48.00;;;;;;5010078;28;20373;-62
2022/07/19 08:25:16;;;;;;;6.47;3.17;;;29.10;48.50;;;;;;5008972;28;20384;-62
2022/07/19 08:27:43;;;;;;;3.33;2.60;;;29.20;46.90;;;;;;5009124;28;20061;-62
2022/07/19 08:30:10;;;;;;;4.30;2.63;;;29.20;47.20;;;;;;4992587;28;20026;-62
2022/07/19 08:32:36;;;;;;;7.30;2.90;;;29.30;46.90;;;;;;5006893;28;20061;-62
2022/07/19 08:35:03;;;;;;;6.30;2.90;;;29.30;46.60;;;;;;5009961;28;20378;-62
2022/07/19 08:37:29;;;;;;;6.40;3.05;;;29.40;47.40;;;;;;5005801;28;20030;-63
2022/07/19 08:39:55;;;;;;;4.65;3.00;;;29.40;47.70;;;;;;5010256;28;20044;-63
2022/07/19 08:42:21;;;;;;;5.03;3.30;;;29.60;46.80;;;;;;5008976;28;20502;-62
2022/07/19 08:44:50;;;;;;;5.07;3.30;;;29.70;48.40;;;;;;5010408;28;20067;-63
2022/07/19 08:47:18;;;;;;;8.90;3.13;;;29.80;46.70;;;;;;5010076;28;20135;-62
2022/07/19 08:49:44;;;;;;;7.57;3.55;;;30.00;46.10;;;;;;5007032;28;20251;-63
2022/07/19 08:52:11;;;;;;;6.13;3.22;;;30.10;45.20;;;;;;5009768;28;20034;-63
2022/07/19 08:54:37;;;;;;;5.32;3.38;;;30.20;45.70;;;;;;5008456;28;20613;-63
2022/07/19 08:59:47;;;;;;;6.03;3.08;;;30.10;45.60;;;;;;5006957;28;20072;-63
2022/07/19 09:02:13;;;;;;;7.22;4.03;;;30.10;45.20;;;;;;5008300;28;20057;-62
2022/07/19 09:04:39;;;;;;;11.93;3.10;;;30.20;45.50;;;;;;4987917;28;20042;-63
2022/07/19 09:07:05;;;;;;;6.47;3.25;;;30.30;45.10;;;;;;5006217;28;20060;-63
2022/07/19 09:09:34;;;;;;;9.40;3.25;;;30.30;44.40;;;;;;5009084;28;20460;-62
2022/07/19 09:12:01;;;;;;;15.83;3.53;;;30.40;44.80;;;;;;5010137;28;20101;-63
2022/07/19 09:14:32;;;;;;;4.72;3.03;;;30.50;45.60;;;;;;5008234;28;20120;-63
2022/07/19 09:17:06;;;;;;;6.57;3.80;;;30.60;45.10;;;;;;5010174;28;20717;-63
2022/07/19 09:19:34;;;;;;;7.80;3.10;;;30.70;45.10;;;;;;5008261;28;20113;-63
2022/07/19 09:22:06;;;;;;;8.57;3.55;;;30.60;44.60;;;;;;5009141;28;20403;-63
2022/07/19 09:24:37;;;;;;;6.82;3.33;;;30.80;45.00;;;;;;5008653;28;20042;-62
2022/07/19 09:27:08;;;;;;;10.88;3.58;;;31.10;44.40;;;;;;5008399;28;20085;-62
2022/07/19 09:29:40;;;;;;;10.77;3.35;;;31.30;44.60;;;;;;4987329;28;20034;-63
2022/07/19 09:32:14;;;;;;;6.18;3.30;;;31.50;44.60;;;;;;4990480;28;20101;-63
2022/07/19 09:34:39;;;;;;;7.32;3.60;;;31.60;43.60;;;;;;4992685;28;20034;-63
2022/07/19 09:37:20;;;;;;;5.22;3.67;;;31.40;42.30;;;;;;5009044;28;20127;-63
2022/07/19 09:39:51;;;;;;;4.72;3.67;;;31.40;42.00;;;;;;5007979;28;20037;-63
2022/07/19 09:42:24;;;;;;;10.82;3.47;;;31.50;43.40;;;;;;5008168;28;20030;-63
2022/07/19 09:45:04;;;;;;;6.75;3.85;;;31.60;42.00;;;;;;5009285;28;20074;-63
2022/07/19 09:47:34;;;;;;;6.22;3.08;;;31.90;41.50;;;;;;5007719;28;20030;-63
2022/07/19 09:50:02;;;;;;;6.47;3.00;;;31.60;41.00;;;;;;5009374;28;20481;-63
2022/07/19 09:52:28;;;;;;;5.72;3.47;;;31.60;41.50;;;;;;5008069;28;20472;-63
2022/07/19 09:54:55;;;;;;;9.20;3.80;;;31.70;41.40;;;;;;5008869;28;20030;-63
2022/07/19 09:57:24;;;;;;;8.20;3.65;;;31.80;40.70;;;;;;5006508;28;20022;-63
2022/07/19 09:59:53;;;;;;;12.63;3.33;;;31.90;41.10;;;;;;5007186;28;20026;-63
2022/07/19 10:02:22;;;;;;;5.95;3.75;;;32.10;40.90;;;;;;4991370;28;20375;-63
2022/07/19 10:04:49;;;;;;;4.93;3.45;;;32.40;41.40;;;;;;5008152;28;20056;-63
2022/07/19 10:07:18;;;;;;;6.15;3.55;;;32.30;40.50;;;;;;5007323;28;20034;-64
2022/07/19 10:09:45;;;;;;;6.25;3.40;;;32.20;39.30;;;;;;5008742;28;20097;-63
2022/07/19 10:12:12;;;;;;;5.72;3.38;;;31.80;39.50;;;;;;5009043;28;20092;-63
2022/07/19 10:14:38;;;;;;;6.15;3.63;;;32.00;40.80;;;;;;5008580;28;20120;-63
2022/07/19 10:17:32;;;;;;;9.32;3.72;;;32.00;39.10;;;;;;5009455;28;20112;-63
2022/07/19 10:19:58;;;;;;;5.50;3.42;;;32.10;39.70;;;;;;5009338;28;20041;-63
2022/07/19 10:22:26;;;;;;;6.40;3.78;;;32.10;40.60;;;;;;5008683;28;20052;-63
2022/07/19 10:24:55;;;;;;;6.32;4.10;;;32.20;40.80;;;;;;5008373;28;20042;-63
2022/07/19 10:27:24;;;;;;;;;;;32.40;39.20;;;;;;5005335;28;20050;-63
2022/07/19 10:30:10;;;;;;;6.00;3.78;;;32.40;40.10;;;;;;5005549;28;19917;-63
2022/07/19 10:32:37;;;;;;;4.85;3.42;;;32.50;38.70;;;;;;4957400;28;20046;-63
2022/07/19 10:35:18;;;;;;;6.70;3.63;;;32.80;39.60;;;;;;5009326;28;20052;-63
2022/07/19 10:37:52;;;;;;;7.72;3.60;;;32.60;39.40;;;;;;5008095;28;20038;-63
2022/07/19 10:40:41;;;;;;;12.80;3.70;;;32.70;39.20;;;;;;5006013;28;20105;-63
2022/07/19 10:43:15;;;;;;;9.43;3.50;;;32.40;38.20;;;;;;4996615;28;20145;-63
2022/07/19 10:45:43;;;;;;;8.65;3.95;;;32.40;39.20;;;;;;5012065;28;20030;-63
2022/07/19 10:48:14;;;;;;;7.28;3.88;;;32.50;38.80;;;;;;5010431;28;20022;-63
2022/07/19 10:50:52;;;;;;;4.65;3.53;;;32.70;39.10;;;;;;5012078;28;20030;-63
2022/07/19 10:53:40;;;;;;;5.32;3.70;;;33.00;39.60;;;;;;5012283;28;20042;-63
2022/07/19 10:56:19;;;;;;;7.40;3.97;;;33.00;38.80;;;;;;5012083;28;20040;-63
2022/07/19 10:59:02;;;;;;;6.43;4.10;;;33.20;39.40;;;;;;5008881;28;20026;-63
2022/07/19 11:01:32;;;;;;;6.28;3.58;;;33.10;37.30;;;;;;5003957;28;20762;-63
2022/07/19 11:04:26;;;;;;;14.93;3.30;;;33.20;39.30;;;;;;5011723;28;20049;-63
2022/07/19 11:07:12;;;;;;;6.78;3.60;;;33.30;38.70;;;;;;4992268;28;20113;-64
2022/07/19 11:09:51;;;;;;;3.97;3.10;;;33.60;38.70;;;;;;5009609;28;20054;-63
2022/07/19 11:12:32;;;;;;;8.77;4.00;;;33.50;37.40;;;;;;5011343;28;20030;-63
2022/07/19 11:15:02;;;;;;;6.45;3.55;;;33.40;37.90;;;;;;5009900;28;20435;-63
2022/07/19 11:17:28;;;;;;;5.90;3.85;;;33.60;37.70;;;;;;5011060;28;20052;-63
2022/07/19 11:20:18;;;;;;;7.20;3.78;;;33.80;37.00;;;;;;5011370;28;20472;-64
2022/07/19 11:22:46;;;;;;;10.88;3.53;;;33.80;37.00;;;;;;4995738;28;20056;-63
2022/07/19 11:25:14;;;;;;;3.78;3.38;;;33.60;36.50;;;;;;5011078;28;20034;-63
2022/07/19 11:27:45;;;;;;;4.53;3.20;;;33.70;37.10;;;;;;5010155;28;20140;-63
2022/07/19 11:30:12;;;;;;;10.10;3.75;;;33.70;39.50;;;;;;5010384;28;20496;-63
2022/07/19 11:32:41;;;;;;;7.20;3.58;;;33.70;38.40;;;;;;4994992;28;20696;-63
2022/07/19 11:35:11;;;;;;;13.00;3.70;;;34.10;38.40;;;;;;5011669;28;20553;-63
2022/07/19 11:37:39;;;;;;;5.55;3.85;;;33.90;37.80;;;;;;5010724;28;20484;-63
2022/07/19 11:40:07;;;;;;;4.03;3.22;;;33.80;38.10;;;;;;5011988;28;20116;-63
2022/07/19 11:42:36;;;;;;;12.00;3.80;;;34.00;37.10;;;;;;5010278;28;20045;-63
2022/07/19 11:45:20;;;;;;;8.05;3.95;;;34.50;37.00;;;;;;5009962;28;20034;-63
2022/07/19 11:47:47;;;;;;;4.93;3.40;;;34.50;36.70;;;;;;5010465;28;20029;-64
2022/07/19 11:50:15;;;;;;;7.25;3.67;;;34.40;37.70;;;;;;5010793;28;20034;-63
2022/07/19 11:52:55;;;;;;;12.13;4.18;;;34.50;37.00;;;;;;5009032;28;20040;-63
2022/07/19 11:55:23;;;;;;;9.43;3.75;;;34.50;37.00;;;;;;5010881;28;20037;-63
2022/07/19 11:57:50;;;;;;;5.88;4.05;;;34.50;38.80;;;;;;5009909;28;20144;-63
2022/07/19 12:00:17;;;;;;;8.40;3.72;;;34.60;36.80;;;;;;5009051;28;20068;-63
2022/07/19 12:03:18;;;;;;;8.05;3.83;;;34.70;38.10;;;;;;5009846;28;20061;-63
2022/07/19 12:06:10;;;;;;;9.73;3.95;;;34.60;37.80;;;;;;5010569;28;20033;-63
2022/07/19 12:08:43;;;;;;;6.15;3.85;;;34.80;36.70;;;;;;4987074;28;20048;-63
2022/07/19 12:11:23;;;;;;;7.07;3.80;;;34.90;36.60;;;;;;4992555;28;20420;-63
2022/07/19 12:13:50;;;;;;;10.77;4.13;;;34.90;36.50;;;;;;4990850;28;20065;-63
2022/07/19 12:16:17;;;;;;;7.35;4.03;;;35.00;37.30;;;;;;4999444;28;20038;-63
2022/07/19 12:18:50;;;;;;;6.80;3.90;;;35.20;37.00;;;;;;5009102;28;20030;-63
2022/07/19 12:21:23;;;;;;;8.93;3.90;;;35.20;36.50;;;;;;5007991;28;20037;-64
2022/07/19 12:24:09;;;;;;;5.35;4.00;;;35.00;36.20;;;;;;5007615;28;20042;-63
2022/07/19 12:26:35;;;;;;;10.20;4.00;;;35.20;36.70;;;;;;5010379;28;20073;-63
2022/07/19 12:29:01;;;;;;;6.95;3.75;;;35.60;38.30;;;;;;5009368;28;20401;-63
2022/07/19 12:31:26;;;;;;;7.03;3.83;;;35.60;35.90;;;;;;5008149;28;20585;-64
2022/07/19 12:34:02;;;;;;;7.75;3.92;;;35.30;35.10;;;;;;5008597;28;20038;-63
2022/07/19 12:36:35;;;;;;;6.28;3.95;;;35.00;35.90;;;;;;5010839;28;20072;-64
2022/07/19 12:39:01;;;;;;;14.93;5.55;;;34.60;37.80;;;;;;5009847;28;20029;-62
2022/07/19 12:41:27;;;;;;;8.55;4.78;;;34.60;38.00;;;;;;5010990;28;20034;-61
2022/07/19 12:43:52;;;;;;;11.82;4.00;;;35.00;37.50;;;;;;5009309;28;20038;-63
2022/07/19 12:46:18;;;;;;;5.95;4.10;;;35.30;36.10;;;;;;5009669;28;20022;-64
2022/07/19 12:48:44;;;;;;;8.85;3.90;;;35.30;37.10;;;;;;5006884;28;20026;-63